Time;durP1;ratioP1;P1;durP2;ratioP2;P2;SDS_P1;SDS_P2;PMS_P1;PMS_P2;Temp;Humidity;BMP_temperature;BMP_pressure;BME280_temperature;BME280_humidity;BME280_pressure;Samples;Min_cycle;Max_cycle;Signal;HPM_P1;HPM_P2
2021/12/20 00:00:59;;;;;;;17.07;7.30;;;;;;;0.11;89.44;98511.71;2134737;83;21004;-82
2021/12/20 00:03:59;;;;;;;24.33;7.83;;;;;;;0.13;89.31;98509.22;2135324;83;21003;-81
2021/12/20 00:07:00;;;;;;;17.93;7.57;;;;;;;0.12;89.35;98512.59;2135135;83;21039;-82
2021/12/20 00:10:00;;;;;;;12.03;6.27;;;;;;;0.16;89.63;98514.50;2134465;83;21384;-82
2021/12/20 00:13:01;;;;;;;16.17;6.60;;;;;;;0.15;89.15;98511.45;2135110;83;20977;-82
2021/12/20 00:16:01;;;;;;;14.97;6.77;;;;;;;0.14;89.28;98510.98;2135528;83;21008;-81
2021/12/20 00:19:02;;;;;;;12.90;6.53;;;;;;;0.14;89.35;98519.96;2135259;83;20992;-82
2021/12/20 00:22:02;;;;;;;16.93;6.17;;;;;;;0.14;89.35;98518.27;2135747;83;20980;-81
2021/12/20 00:25:03;;;;;;;12.07;6.50;;;;;;;0.15;89.41;98512.73;2135827;83;21396;-82
2021/12/20 00:28:03;;;;;;;14.00;6.77;;;;;;;0.12;89.20;98516.03;2135830;83;20957;-82
2021/12/20 00:31:04;;;;;;;18.60;7.80;;;;;;;0.11;89.16;98523.66;2135995;83;21051;-81
2021/12/20 00:34:04;;;;;;;16.27;7.10;;;;;;;0.09;89.36;98521.43;2136077;83;21000;-81
2021/12/20 00:40:19;;;;;;;17.83;7.60;;;;;;;0.08;89.26;98526.97;2136374;83;21044;-81
2021/12/20 00:40:22;;;;;;;17.57;7.63;;;;;;;0.07;89.39;98523.92;2132129;83;21024;-82
2021/12/20 00:43:22;;;;;;;15.20;6.45;;;;;;;0.09;89.34;98527.84;2136769;83;21049;-82
2021/12/20 00:46:22;;;;;;;19.53;6.10;;;;;;;0.10;89.31;98529.61;2136779;83;21008;-81
2021/12/20 00:49:23;;;;;;;14.13;6.17;;;;;;;0.10;88.98;98529.61;2135953;83;21007;-82
2021/12/20 00:52:25;;;;;;;14.00;6.43;;;;;;;0.09;89.23;98530.01;2136627;83;21068;-80
2021/12/20 00:55:25;;;;;;;12.83;6.50;;;;;;;0.10;89.10;98526.64;2136368;83;21023;-81
2021/12/20 00:58:27;;;;;;;11.07;5.80;;;;;;;0.12;89.17;98532.72;2135878;83;20996;-81
2021/12/20 01:01:28;;;;;;;14.87;6.20;;;;;;;0.14;89.02;98528.94;2136541;83;21048;-81
2021/12/20 01:04:28;;;;;;;14.90;6.30;;;;;;;0.13;88.74;98533.60;2136593;83;20988;-81
2021/12/20 01:07:29;;;;;;;13.73;6.50;;;;;;;0.12;89.01;98536.97;2136408;83;21059;-81
2021/12/20 01:10:30;;;;;;;13.23;6.70;;;;;;;0.13;89.05;98528.47;2136490;83;21016;-81
2021/12/20 01:13:32;;;;;;;13.90;6.33;;;;;;;0.11;88.98;98524.95;2136220;83;20992;-80
2021/12/20 01:16:33;;;;;;;14.70;6.47;;;;;;;0.07;88.96;98519.19;2135988;83;21040;-81
2021/12/20 01:19:34;;;;;;;11.50;5.10;;;;;;;0.06;89.08;98526.02;2135995;83;20988;-81
2021/12/20 01:22:34;;;;;;;11.50;5.83;;;;;;;0.03;88.93;98529.72;2135883;83;20957;-81
2021/12/20 01:25:35;;;;;;;14.27;5.60;;;;;;;0.03;88.91;98528.84;2134175;83;21009;-82
2021/12/20 01:28:36;;;;;;;16.00;6.20;;;;;;;0.03;88.65;98532.69;2128594;84;21020;-80
2021/12/20 01:31:36;;;;;;;13.33;6.00;;;;;;;0.02;88.83;98529.23;2128952;83;20948;-81
2021/12/20 01:34:37;;;;;;;12.37;5.70;;;;;;;0.04;88.57;98531.88;2128391;84;20992;-82
2021/12/20 01:37:37;;;;;;;11.30;5.30;;;;;;;0.04;88.48;98535.73;2128034;83;21043;-82
2021/12/20 01:40:38;;;;;;;9.40;4.67;;;;;;;0.03;88.59;98532.69;2127409;84;21332;-80
2021/12/20 01:43:38;;;;;;;10.70;5.13;;;;;;;0.02;88.44;98524.11;2128129;83;20933;-81
2021/12/20 01:46:39;;;;;;;16.30;6.07;;;;;;;-0.01;88.51;98522.24;2127884;83;20980;-81
2021/12/20 01:49:53;;;;;;;12.37;6.70;;;;;;;-0.04;88.31;98519.53;2128310;84;20972;-81
2021/12/20 01:52:43;;;;;;;13.30;5.93;;;;;;;-0.07;88.55;98526.20;2125672;84;20972;-81
2021/12/20 01:55:43;;;;;;;12.53;5.87;;;;;;;-0.08;88.48;98531.73;2128316;83;21000;-82
2021/12/20 01:58:44;;;;;;;14.07;5.83;;;;;;;-0.09;88.63;98522.68;2128482;84;21325;-80
2021/12/20 02:01:46;;;;;;;10.30;5.10;;;;;;;-0.11;88.64;98523.89;2128257;83;21040;-81
2021/12/20 02:04:49;;;;;;;11.30;5.40;;;;;;;-0.09;88.31;98523.56;2128513;83;21286;-82
2021/12/20 02:07:57;;;;;;;15.23;5.60;;;;;;;-0.09;88.37;98528.69;2128158;84;21051;-80
2021/12/20 02:10:53;;;;;;;13.13;5.50;;;;;;;-0.09;88.38;98527.41;2126808;84;21012;-83
2021/12/20 02:13:53;;;;;;;13.30;5.60;;;;;;;-0.07;88.05;98524.52;2128552;84;20996;-81
2021/12/20 02:16:54;;;;;;;9.90;5.10;;;;;;;-0.07;88.17;98520.67;2128511;83;21030;-80
2021/12/20 02:19:54;;;;;;;9.47;4.80;;;;;;;-0.06;88.07;98524.11;2128169;83;21008;-81
2021/12/20 02:22:55;;;;;;;13.60;5.93;;;;;;;-0.06;88.14;98513.45;2128800;84;21008;-81
2021/12/20 02:25:55;;;;;;;9.50;5.00;;;;;;;-0.06;88.05;98520.27;2128251;83;20984;-81
2021/12/20 02:29:02;;;;;;;13.37;5.63;;;;;;;-0.06;88.18;98512.56;2128366;84;21012;-80
2021/12/20 02:38:27;;;;;;;10.83;5.23;;;;;;;-0.03;87.96;98512.31;2191159;80;21437;-79
2021/12/20 02:41:31;;;;;;;12.97;5.17;;;;;;;-0.02;88.12;98521.77;2190738;81;21008;-80
2021/12/20 02:44:30;;;;;;;8.73;5.50;;;;;;;0.00;88.15;98515.45;2148898;83;21091;-80
2021/12/20 02:47:30;;;;;;;15.07;6.60;;;;;;;0.00;88.01;98511.61;2149374;83;21023;-80
2021/12/20 02:50:31;;;;;;;11.80;6.50;;;;;;;0.02;88.01;98508.71;2149467;83;20995;-80
2021/12/20 02:53:31;;;;;;;14.57;6.67;;;;;;;0.02;87.94;98506.15;2149270;83;20971;-80
2021/12/20 02:56:32;;;;;;;13.67;6.10;;;;;;;0.04;88.14;98506.22;2148708;83;20959;-80
2021/12/20 02:59:32;;;;;;;15.37;6.47;;;;;;;0.05;87.35;98503.72;2148504;83;21720;-79
2021/12/20 03:02:33;;;;;;;13.07;6.03;;;;;;;0.05;87.60;98503.72;2148392;83;20990;-80
2021/12/20 03:05:33;;;;;;;13.37;7.60;;;;;;;0.05;87.59;98506.70;2148018;83;21022;-79
2021/12/20 03:08:34;;;;;;;18.87;7.00;;;;;;;0.07;87.57;98503.80;2147898;83;20975;-80
2021/12/20 03:11:36;;;;;;;12.13;5.83;;;;;;;0.07;87.54;98510.21;2149090;83;20983;-80
2021/12/20 03:14:40;;;;;;;15.67;5.93;;;;;;;0.09;87.53;98509.48;2148783;83;20990;-81
2021/12/20 03:17:39;;;;;;;10.97;5.17;;;;;;;0.09;87.18;98505.63;2148323;83;21320;-83
2021/12/20 03:20:41;;;;;;;12.23;4.93;;;;;;;0.10;86.98;98512.92;2148806;83;20974;-83
2021/12/20 03:23:41;;;;;;;10.60;5.03;;;;;;;0.09;86.70;98505.63;2150062;83;21359;-83
2021/12/20 03:26:42;;;;;;;11.60;5.00;;;;;;;0.11;86.81;98503.13;2150337;83;21002;-82
2021/12/20 03:29:42;;;;;;;10.70;5.37;;;;;;;0.11;86.83;98511.71;2150099;83;20936;-83
2021/12/20 03:32:43;;;;;;;10.33;4.77;;;;;;;0.11;86.79;98509.55;2148541;83;21117;-83
2021/12/20 03:35:43;;;;;;;8.93;4.20;;;;;;;0.12;86.59;98508.74;2140035;83;20979;-80
2021/12/20 03:38:44;;;;;;;6.80;4.30;;;;;;;0.13;86.60;98514.35;2138782;83;20999;-80
2021/12/20 03:41:44;;;;;;;10.27;4.57;;;;;;;0.13;86.53;98511.78;2139519;83;21453;-80
2021/12/20 03:44:45;;;;;;;8.87;4.17;;;;;;;0.12;86.24;98510.02;2139518;83;20971;-81
2021/12/20 03:47:46;;;;;;;9.43;4.27;;;;;;;0.09;86.16;98501.78;2139676;83;20987;-80
2021/12/20 03:50:46;;;;;;;8.07;4.43;;;;;;;0.09;86.48;98503.06;2139727;83;20983;-80
2021/12/20 03:53:47;;;;;;;9.97;4.37;;;;;;;0.08;86.45;98501.70;2139607;83;20994;-80
2021/12/20 03:56:47;;;;;;;10.47;6.13;;;;;;;0.07;86.48;98508.52;2139895;83;20967;-80
2021/12/20 03:59:48;;;;;;;8.77;4.60;;;;;;;0.05;86.44;98503.72;2139853;83;20920;-81
2021/12/20 04:02:48;;;;;;;10.03;4.67;;;;;;;0.04;86.66;98511.35;2139599;83;21081;-80
2021/12/20 04:05:49;;;;;;;10.97;4.83;;;;;;;0.02;86.43;98508.71;2139722;83;20940;-79
2021/12/20 04:08:49;;;;;;;11.43;5.40;;;;;;;0.03;86.43;98513.03;2139748;83;20935;-79
2021/12/20 04:11:50;;;;;;;8.37;4.60;;;;;;;0.03;86.43;98519.45;2139426;83;21035;-80
2021/12/20 04:14:50;;;;;;;7.70;4.03;;;;;;;0.02;86.51;98527.95;2139552;83;21046;-79
2021/12/20 04:17:51;;;;;;;8.37;4.77;;;;;;;-0.01;86.77;98532.50;2139346;83;21006;-80
2021/12/20 04:20:51;;;;;;;10.00;4.57;;;;;;;-0.03;86.81;98524.26;2139128;83;20952;-79
2021/12/20 04:23:52;;;;;;;8.87;4.20;;;;;;;-0.02;86.67;98529.87;2138941;83;21011;-80
2021/12/20 04:26:53;;;;;;;7.23;4.77;;;;;;;-0.03;86.59;98522.98;2138818;83;20967;-82
2021/12/20 04:29:54;;;;;;;8.63;4.03;;;;;;;-0.02;85.93;98526.90;2138439;83;20972;-79
2021/12/20 04:32:55;;;;;;;9.47;4.90;;;;;;;-0.02;86.40;98521.77;2138588;83;21102;-80
2021/12/20 04:35:56;;;;;;;10.83;4.00;;;;;;;-0.01;86.20;98522.24;2138840;83;20975;-79
2021/12/20 04:38:56;;;;;;;6.80;4.93;;;;;;;-0.02;86.28;98535.88;2139210;83;20975;-79
2021/12/20 04:41:57;;;;;;;9.03;4.27;;;;;;;0.02;85.90;98535.66;2138920;83;20943;-80
2021/12/20 04:44:57;;;;;;;8.77;4.63;;;;;;;0.05;85.79;98546.47;2139029;83;20943;-79
2021/12/20 04:47:58;;;;;;;10.30;4.70;;;;;;;0.05;85.77;98546.06;2139122;83;20976;-80
2021/12/20 04:50:58;;;;;;;13.93;5.43;;;;;;;0.13;86.00;98526.78;2138692;83;21011;-80
2021/12/20 04:53:59;;;;;;;8.07;4.70;;;;;;;0.81;94.00;98524.34;2138451;83;21036;-79
2021/12/20 04:57:02;;;;;;;10.27;4.63;;;;;;;2.12;82.93;98523.52;2166285;82;20969;-81
2021/12/20 05:00:02;;;;;;;6.87;4.67;;;;;;;1.67;85.01;98531.52;2182404;81;21020;-79
2021/12/20 05:03:03;;;;;;;8.13;5.10;;;;;;;1.99;83.24;98522.56;2183511;82;20980;-79
2021/12/20 05:06:03;;;;;;;7.10;4.30;;;;;;;2.48;78.08;98527.53;2183932;81;20967;-80
2021/12/20 05:09:05;;;;;;;8.57;3.97;;;;;;;1.68;78.55;98514.85;2183208;82;20964;-83
2021/12/20 05:12:13;;;;;;;7.80;3.97;;;;;;;1.18;80.44;98512.32;2182664;81;21032;-82
2021/12/20 05:15:13;;;;;;;7.93;4.07;;;;;;;0.86;81.42;98529.27;2183066;82;20980;-81
2021/12/20 05:18:14;;;;;;;11.37;4.57;;;;;;;0.63;82.31;98530.41;2183276;81;20999;-83
2021/12/20 05:21:14;;;;;;;9.10;4.37;;;;;;;0.50;82.83;98534.51;2182875;81;21015;-83
2021/12/20 05:24:15;;;;;;;6.27;4.20;;;;;;;0.39;83.25;98533.54;2183396;81;21455;-83
2021/12/20 05:27:15;;;;;;;9.30;5.20;;;;;;;0.30;84.00;98541.28;2183659;82;20968;-84
2021/12/20 05:30:16;;;;;;;7.73;4.70;;;;;;;0.25;84.58;98533.77;2184097;81;20992;-83
2021/12/20 05:33:16;;;;;;;7.20;4.53;;;;;;;0.22;84.63;98541.73;2181395;81;21032;-83
2021/12/20 05:36:17;;;;;;;8.43;4.40;;;;;;;0.18;84.89;98535.98;2172453;82;20988;-83
2021/12/20 05:39:17;;;;;;;7.57;4.53;;;;;;;0.16;84.96;98533.75;2173265;81;21355;-83
2021/12/20 05:42:18;;;;;;;6.20;4.10;;;;;;;0.16;84.83;98551.71;2172866;82;20957;-84
2021/12/20 05:45:18;;;;;;;5.40;4.00;;;;;;;0.14;85.04;98552.92;2172750;82;20992;-83
2021/12/20 05:48:19;;;;;;;7.83;3.90;;;;;;;0.13;84.90;98547.31;2172734;82;20945;-82
2021/12/20 05:51:19;;;;;;;6.60;4.73;;;;;;;0.10;85.35;98547.17;2172470;81;20948;-83
2021/12/20 05:54:20;;;;;;;6.43;3.70;;;;;;;0.10;85.45;98551.42;2172347;81;21351;-80
2021/12/20 05:57:20;;;;;;;7.00;4.10;;;;;;;0.11;85.36;98559.59;2172611;81;21301;-81
2021/12/20 06:00:21;;;;;;;7.87;5.00;;;;;;;0.12;85.43;98551.09;2172666;82;20972;-81
2021/12/20 06:03:21;;;;;;;8.53;5.60;;;;;;;0.13;85.54;98546.44;2172755;82;21079;-83
2021/12/20 06:06:22;;;;;;;9.97;4.33;;;;;;;0.12;85.55;98551.09;2171327;81;20999;-83
2021/12/20 06:09:23;;;;;;;7.77;4.50;;;;;;;0.12;85.56;98547.24;2172307;82;21408;-83
2021/12/20 06:12:23;;;;;;;5.40;4.47;;;;;;;0.11;85.41;98557.91;2171943;82;20973;-83
2021/12/20 06:15:24;;;;;;;8.63;4.77;;;;;;;0.14;85.69;98560.63;2172525;81;20961;-84
2021/12/20 06:18:24;;;;;;;7.83;4.27;;;;;;;0.13;85.31;98554.13;2172817;81;20952;-82
2021/12/20 06:21:25;;;;;;;8.10;3.90;;;;;;;0.11;85.41;98561.76;2171898;82;20972;-84
2021/12/20 06:24:25;;;;;;;10.63;5.00;;;;;;;0.10;85.51;98570.67;2173252;82;20964;-82
2021/12/20 06:27:26;;;;;;;7.23;4.63;;;;;;;0.10;85.69;98557.84;2172720;82;20972;-81
2021/12/20 06:30:26;;;;;;;7.70;5.10;;;;;;;0.07;85.75;98566.27;2171703;82;20968;-82
2021/12/20 06:33:27;;;;;;;8.40;4.73;;;;;;;0.06;85.89;98582.87;2172409;81;21431;-83
2021/12/20 06:36:29;;;;;;;9.60;5.23;;;;;;;0.07;85.95;98585.92;2172352;82;21015;-82
2021/12/20 06:39:31;;;;;;;5.80;4.07;;;;;;;0.09;85.83;98585.59;2173178;82;21016;-83
2021/12/20 06:42:31;;;;;;;6.33;4.37;;;;;;;0.10;85.94;98591.20;2172752;82;21079;-83
2021/12/20 06:45:33;;;;;;;12.07;5.97;;;;;;;0.11;85.84;98601.94;2171202;82;20953;-82
2021/12/20 06:48:33;;;;;;;8.23;5.27;;;;;;;0.12;86.08;98611.41;2169982;81;21012;-83
2021/12/20 06:51:38;;;;;;;10.20;6.47;;;;;;;0.13;85.93;98610.20;2170994;82;20976;-83
2021/12/20 06:54:36;;;;;;;32.60;13.27;;;;;;;0.14;86.10;98620.06;2127275;83;21332;-83
2021/12/20 06:57:39;;;;;;;8.93;6.20;;;;;;;0.15;86.26;98613.72;2172072;81;20985;-83
2021/12/20 07:00:39;;;;;;;22.47;9.60;;;;;;;0.18;86.25;98621.56;2128087;83;21020;-83
2021/12/20 07:03:40;;;;;;;24.23;11.33;;;;;;;0.20;85.96;98625.48;2127772;84;21066;-83
2021/12/20 07:06:40;;;;;;;21.20;11.40;;;;;;;0.20;86.24;98618.67;2172670;82;21713;-83
2021/12/20 07:09:41;;;;;;;23.90;10.97;;;;;;;0.24;86.53;98606.86;2172933;81;20972;-83
2021/12/20 07:15:44;;;;;;;21.37;10.33;;;;;;;0.32;86.46;98624.80;2167448;82;20960;-83
2021/12/20 07:18:45;;;;;;;19.40;10.83;;;;;;;0.37;85.99;98628.47;2172216;81;21349;-80
2021/12/20 07:21:45;;;;;;;14.33;7.47;;;;;;;0.40;85.97;98631.19;2172626;81;20972;-84
2021/12/20 07:24:46;;;;;;;9.03;6.03;;;;;;;0.40;85.74;98617.47;2173730;81;21117;-83
2021/12/20 07:27:46;;;;;;;9.83;5.67;;;;;;;0.41;85.73;98630.78;2173174;81;20957;-85
2021/12/20 07:30:50;;;;;;;10.83;5.53;;;;;;;0.41;85.67;98633.34;2172745;82;20949;-83
2021/12/20 07:33:50;;;;;;;10.37;5.77;;;;;;;0.75;87.80;98644.41;2172791;81;21051;-83
2021/12/20 07:36:53;;;;;;;7.23;5.53;;;;;;;0.76;84.71;98633.33;2172167;82;20937;-83
2021/12/20 07:39:53;;;;;;;10.20;5.00;;;;;;;0.65;84.59;98640.93;2171769;82;21017;-81
2021/12/20 07:42:54;;;;;;;10.07;5.67;;;;;;;0.56;84.93;98635.36;2171319;81;21012;-83
2021/12/20 07:45:54;;;;;;;6.00;4.93;;;;;;;0.52;84.90;98636.02;2172066;82;20956;-84
2021/12/20 07:48:55;;;;;;;9.80;5.90;;;;;;;0.47;84.71;98651.61;2172688;82;20945;-82
2021/12/20 07:51:55;;;;;;;7.50;4.97;;;;;;;0.47;84.92;98633.23;2171666;82;20957;-82
2021/12/20 07:54:56;;;;;;;9.60;5.53;;;;;;;0.48;84.68;98655.95;2172339;82;20956;-81
2021/12/20 07:57:57;;;;;;;11.90;6.30;;;;;;;0.48;85.01;98644.39;2172072;81;21015;-82
2021/12/20 08:00:59;;;;;;;8.63;5.77;;;;;;;0.47;84.94;98652.50;2171969;82;21004;-83
2021/12/20 08:03:59;;;;;;;11.97;6.80;;;;;;;0.47;85.03;98646.48;2171696;81;21405;-81
2021/12/20 08:07:00;;;;;;;10.80;5.93;;;;;;;0.50;85.19;98648.79;2171499;81;20921;-81
2021/12/20 08:10:01;;;;;;;7.27;5.00;;;;;;;0.53;84.65;98657.92;2172047;82;20976;-82
2021/12/20 08:13:01;;;;;;;10.20;5.70;;;;;;;0.53;84.66;98660.49;2172241;82;20981;-82
2021/12/20 08:16:02;;;;;;;9.03;5.60;;;;;;;0.54;84.75;98666.52;2172745;81;20977;-83
2021/12/20 08:19:02;;;;;;;8.53;5.50;;;;;;;0.55;84.74;98665.70;2172746;82;20980;-82
2021/12/20 08:22:03;;;;;;;6.83;5.03;;;;;;;0.61;84.69;98663.02;2173449;81;20944;-82
2021/12/20 08:25:04;;;;;;;8.93;5.40;;;;;;;0.64;84.48;98668.31;2172632;82;20968;-82
2021/12/20 08:28:04;;;;;;;9.70;5.33;;;;;;;0.69;84.27;98673.66;2172406;81;21372;-81
2021/12/20 08:31:05;;;;;;;9.00;4.67;;;;;;;0.73;84.12;98669.15;2170776;82;20909;-81
2021/12/20 08:34:05;;;;;;;7.03;4.77;;;;;;;0.74;83.92;98686.73;2172167;82;21027;-83
2021/12/20 08:37:06;;;;;;;8.67;5.23;;;;;;;0.77;83.49;98669.77;2172800;81;21340;-82
2021/12/20 08:40:06;;;;;;;10.67;5.20;;;;;;;0.83;83.74;98673.03;2172927;81;20945;-83
2021/12/20 08:43:07;;;;;;;12.20;5.80;;;;;;;0.84;83.64;98683.37;2172111;82;20972;-82
2021/12/20 08:46:09;;;;;;;9.30;4.93;;;;;;;0.90;84.03;98678.97;2172976;81;20987;-83
2021/12/20 08:49:10;;;;;;;8.30;4.60;;;;;;;0.93;83.74;98684.25;2173013;82;20929;-82
2021/12/20 08:55:13;;;;;;;10.43;6.57;;;;;;;0.88;83.65;98687.01;2166032;82;20995;-82
2021/12/20 08:58:14;;;;;;;9.03;5.70;;;;;;;0.93;84.00;98694.53;2172381;82;20979;-78
2021/12/20 09:01:14;;;;;;;13.77;6.37;;;;;;;0.96;84.20;98697.25;2172692;82;20984;-82
2021/12/20 09:04:16;;;;;;;10.77;6.67;;;;;;;1.01;84.47;98693.60;2171956;82;21004;-81
2021/12/20 09:07:17;;;;;;;11.13;6.37;;;;;;;1.00;84.50;98705.98;2172988;82;20991;-82
2021/12/20 09:10:17;;;;;;;7.30;5.37;;;;;;;0.95;84.64;98701.91;2172600;81;20957;-81
2021/12/20 09:13:18;;;;;;;9.47;6.37;;;;;;;0.85;84.68;98712.53;2171350;81;21776;-82
2021/12/20 09:16:18;;;;;;;12.63;8.23;;;;;;;0.78;84.68;98715.61;2173041;82;21031;-84
2021/12/20 09:19:19;;;;;;;10.27;6.77;;;;;;;0.77;85.17;98709.59;2172688;81;20988;-82
2021/12/20 09:22:25;;;;;;;8.53;6.40;;;;;;;0.78;84.68;98708.78;2172663;82;21357;-83
2021/12/20 09:25:22;;;;;;;10.47;6.87;;;;;;;0.81;84.61;98715.36;2128279;83;21023;-81
2021/12/20 09:28:22;;;;;;;12.97;6.30;;;;;;;0.81;84.79;98720.90;2127436;84;20939;-82
2021/12/20 09:31:23;;;;;;;11.50;7.77;;;;;;;0.80;84.83;98712.72;2128582;84;21004;-83
2021/12/20 09:34:23;;;;;;;6.57;5.87;;;;;;;0.79;84.73;98716.09;2128383;83;21083;-83
2021/12/20 09:37:24;;;;;;;9.57;6.03;;;;;;;0.78;85.06;98723.32;2128170;84;20980;-84
2021/12/20 09:40:33;;;;;;;8.67;6.30;;;;;;;0.73;85.36;98730.81;2128959;84;21383;-85
2021/12/20 09:43:33;;;;;;;7.20;6.07;;;;;;;0.67;85.69;98724.49;2173923;81;21044;-84
2021/12/20 09:46:33;;;;;;;10.67;7.27;;;;;;;0.63;85.78;98729.48;2172873;82;21858;-83
2021/12/20 09:49:34;;;;;;;10.90;6.87;;;;;;;0.62;85.70;98718.73;2171513;81;20968;-84
2021/12/20 09:52:34;;;;;;;10.57;6.43;;;;;;;0.68;86.00;98719.83;2172671;81;21377;-83
2021/12/20 09:55:35;;;;;;;12.20;6.47;;;;;;;0.74;85.48;98717.16;2172902;81;20964;-84
2021/12/20 09:58:35;;;;;;;8.70;6.10;;;;;;;0.81;84.91;98718.33;2172298;82;20992;-83
2021/12/20 10:04:57;;;;;;;10.30;6.13;;;;;;;0.89;84.43;98710.61;2171342;82;21019;-85
2021/12/20 10:08:01;;;;;;;10.00;6.20;;;;;;;1.01;84.31;98709.91;2172299;81;21410;-83
2021/12/20 10:11:00;;;;;;;8.53;6.10;;;;;;;1.17;83.46;98713.66;2126927;83;20983;-84
2021/12/20 10:14:01;;;;;;;7.47;5.10;;;;;;;1.30;82.61;98718.09;2126890;84;20956;-81
2021/12/20 10:17:02;;;;;;;8.47;5.77;;;;;;;1.45;82.47;98716.22;2128308;84;20992;-83
2021/12/20 10:20:03;;;;;;;7.77;4.77;;;;;;;1.53;81.65;98723.87;2128219;84;21019;-83
2021/12/20 10:23:03;;;;;;;8.80;5.20;;;;;;;1.58;80.38;98722.38;2127867;84;20960;-84
2021/12/20 10:26:05;;;;;;;11.73;6.07;;;;;;;1.58;81.00;98717.23;2127263;84;20952;-84
2021/12/20 10:29:06;;;;;;;8.87;5.80;;;;;;;1.62;80.35;98723.00;2127800;84;20932;-83
2021/12/20 10:32:06;;;;;;;7.10;5.07;;;;;;;1.60;80.11;98722.92;2127868;84;21003;-82
2021/12/20 10:35:07;;;;;;;10.20;5.80;;;;;;;1.59;79.71;98728.00;2127931;83;21062;-83
2021/12/20 10:38:08;;;;;;;10.83;5.10;;;;;;;1.56;79.99;98728.75;2128486;84;20999;-82
2021/12/20 10:41:08;;;;;;;6.50;4.47;;;;;;;1.50;79.27;98728.87;2127972;84;20947;-83
2021/12/20 10:44:17;;;;;;;8.67;5.07;;;;;;;1.48;79.49;98721.50;2128389;84;21004;-83
2021/12/20 10:47:17;;;;;;;7.23;4.90;;;;;;;1.53;78.87;98726.44;2171205;81;21056;-80
2021/12/20 10:50:18;;;;;;;6.07;4.10;;;;;;;1.52;78.68;98728.13;2171821;82;20957;-81
2021/12/20 10:53:18;;;;;;;8.77;4.40;;;;;;;1.50;78.28;98726.30;2172202;81;20952;-84
2021/12/20 10:56:19;;;;;;;8.43;3.63;;;;;;;1.53;78.28;98724.75;2171902;81;20969;-81
2021/12/20 10:59:19;;;;;;;4.70;3.73;;;;;;;1.47;76.84;98727.45;2172203;81;20972;-83
2021/12/20 11:03:10;;;;;;;8.40;4.00;;;;;;;1.39;77.29;98726.22;2171967;81;20956;-84
2021/12/20 11:05:38;;;;;;;5.58;4.15;;;;;;;1.28;77.10;98729.19;2125157;84;21008;-81
2021/12/20 11:11:55;;;;;;;8.40;4.40;;;;;;;1.13;78.14;98734.02;2171042;82;20984;-82
2021/12/20 11:14:56;;;;;;;7.83;4.83;;;;;;;1.06;78.38;98735.42;2170515;82;21068;-82
2021/12/20 11:17:58;;;;;;;7.40;4.50;;;;;;;1.04;78.63;98740.89;2160348;82;20897;-81
2021/12/20 11:20:59;;;;;;;7.27;4.23;;;;;;;1.00;78.33;98740.27;2170258;82;21403;-81
2021/12/20 11:23:59;;;;;;;6.93;4.40;;;;;;;0.97;78.57;98734.11;2171554;81;21368;-81
2021/12/20 11:27:00;;;;;;;9.73;5.87;;;;;;;0.96;78.92;98737.08;2170920;82;21360;-82
2021/12/20 11:30:00;;;;;;;10.77;5.03;;;;;;;0.96;79.24;98733.23;2171010;82;20936;-82
2021/12/20 11:33:01;;;;;;;10.37;6.37;;;;;;;0.92;78.95;98739.03;2171148;82;20995;-82
2021/12/20 11:36:01;;;;;;;13.53;8.70;;;;;;;0.90;79.26;98732.94;2171987;81;21016;-81
2021/12/20 11:39:03;;;;;;;11.43;6.37;;;;;;;0.89;79.68;98735.03;2171974;81;20961;-82
2021/12/20 11:42:05;;;;;;;10.73;5.77;;;;;;;0.91;79.26;98739.84;2171597;81;20979;-83
2021/12/20 11:45:05;;;;;;;11.93;6.40;;;;;;;0.92;79.91;98735.17;2171199;82;21345;-82
2021/12/20 11:48:06;;;;;;;12.30;5.77;;;;;;;0.93;79.40;98739.10;2171410;81;20972;-81
2021/12/20 11:51:07;;;;;;;10.57;5.30;;;;;;;0.95;78.92;98736.60;2172417;82;21008;-83
2021/12/20 11:54:08;;;;;;;13.30;5.70;;;;;;;0.92;78.90;98732.20;2171829;82;20960;-80
2021/12/20 11:57:09;;;;;;;9.33;5.37;;;;;;;0.89;78.76;98741.05;2172011;82;21677;-81
2021/12/20 12:00:09;;;;;;;12.30;6.83;;;;;;;0.87;78.74;98734.95;2171398;81;20933;-83
2021/12/20 12:03:10;;;;;;;19.10;7.50;;;;;;;0.85;79.24;98726.66;2172126;82;20960;-80
2021/12/20 12:06:11;;;;;;;12.57;6.70;;;;;;;0.86;78.60;98731.88;2171972;82;20996;-84
2021/12/20 12:09:12;;;;;;;10.47;6.77;;;;;;;0.87;78.80;98733.67;2171176;81;20988;-83
2021/12/20 12:12:15;;;;;;;12.33;6.50;;;;;;;0.89;79.56;98728.60;2171385;82;20953;-83
2021/12/20 12:15:19;;;;;;;9.80;5.70;;;;;;;0.91;79.16;98739.84;2126312;83;21083;-79
2021/12/20 12:18:17;;;;;;;10.63;5.17;;;;;;;0.89;79.91;98734.63;2171201;81;20968;-83
2021/12/20 12:21:18;;;;;;;7.13;5.00;;;;;;;0.88;79.08;98747.40;2172024;82;21015;-82
2021/12/20 12:24:18;;;;;;;9.03;5.73;;;;;;;0.87;79.00;98743.06;2171487;81;21005;-83
2021/12/20 12:27:19;;;;;;;9.57;5.23;;;;;;;0.84;79.24;98745.45;2171537;81;21448;-82
2021/12/20 12:30:20;;;;;;;9.30;5.17;;;;;;;0.81;79.05;98744.02;2171192;82;20960;-82
2021/12/20 12:33:21;;;;;;;9.50;5.27;;;;;;;0.79;79.68;98748.20;2171602;81;20975;-82
2021/12/20 12:36:30;;;;;;;21.97;7.33;;;;;;;0.76;79.93;98743.80;2170575;81;20992;-81
2021/12/20 12:39:30;;;;;;;17.87;9.07;;;;;;;0.75;80.67;98746.30;2134043;83;21070;-83
2021/12/20 12:42:33;;;;;;;28.70;16.67;;;;;;;0.70;80.90;98757.63;2135255;83;20947;-82
2021/12/20 12:45:33;;;;;;;16.53;8.80;;;;;;;0.68;81.16;98758.37;2180605;82;21012;-82
2021/12/20 12:48:34;;;;;;;17.67;8.47;;;;;;;0.64;81.93;98754.77;2180215;82;21003;-81
2021/12/20 12:51:34;;;;;;;24.43;12.00;;;;;;;0.61;82.25;98755.50;2181275;82;21000;-83
2021/12/20 12:54:35;;;;;;;19.67;8.93;;;;;;;0.59;82.54;98753.25;2162541;82;20984;-83
2021/12/20 12:57:35;;;;;;;21.60;9.97;;;;;;;0.58;82.43;98757.91;2181242;81;21687;-82
2021/12/20 13:00:36;;;;;;;23.97;11.80;;;;;;;0.58;82.64;98754.06;2181717;81;20992;-81
2021/12/20 13:03:37;;;;;;;18.60;8.73;;;;;;;0.57;82.67;98762.98;2181552;82;20948;-79
2021/12/20 13:06:37;;;;;;;16.80;8.60;;;;;;;0.57;82.86;98765.14;2135692;83;21054;-81
2021/12/20 13:09:44;;;;;;;26.33;12.93;;;;;;;0.58;82.61;98775.90;2136590;83;21010;-83
2021/12/20 13:12:56;;;;;;;23.13;11.47;;;;;;;0.60;82.54;98774.69;2180897;81;20988;-82
2021/12/20 13:15:58;;;;;;;16.13;7.53;;;;;;;0.61;82.56;98770.03;2180720;81;21028;-82
2021/12/20 13:18:58;;;;;;;19.43;9.67;;;;;;;0.61;81.87;98777.73;2136182;83;20983;-82
2021/12/20 13:21:59;;;;;;;15.43;8.63;;;;;;;0.60;82.31;98798.69;2135965;83;20994;-82
2021/12/20 13:25:00;;;;;;;18.67;8.90;;;;;;;0.51;84.20;98780.66;2136288;83;20959;-82
2021/12/20 13:28:00;;;;;;;17.53;9.47;;;;;;;0.44;84.73;98790.14;2136515;83;20951;-80
2021/12/20 13:31:02;;;;;;;13.10;7.10;;;;;;;0.35;86.20;98796.09;2134573;83;20983;-80
2021/12/20 13:34:05;;;;;;;7.13;4.27;;;;;;;0.24;87.71;98805.81;2136166;83;21418;-82
2021/12/20 13:40:07;;;;;;;4.33;3.47;;;;;;;-0.12;91.67;98803.07;2162957;82;20984;-82
2021/12/20 13:43:08;;;;;;;5.57;4.53;;;;;;;-0.24;92.93;98804.11;2177513;81;20953;-82
2021/12/20 13:46:16;;;;;;;7.57;5.77;;;;;;;-0.26;92.61;98798.02;2177974;82;20984;-83
2021/12/20 13:49:17;;;;;;;42.53;16.90;;;;;;;-0.20;92.07;98804.75;2177176;82;21434;-83
2021/12/20 13:52:17;;;;;;;43.30;15.37;;;;;;;-0.14;91.16;98820.06;2177348;82;21004;-85
2021/12/20 13:55:18;;;;;;;61.83;21.13;;;;;;;-0.09;90.62;98818.63;2178438;82;20972;-85
2021/12/20 13:58:18;;;;;;;84.40;29.70;;;;;;;-0.06;90.08;98818.78;2178748;82;21325;-85
2021/12/20 14:01:19;;;;;;;50.77;18.50;;;;;;;-0.02;89.83;98815.98;2178118;82;20948;-84
2021/12/20 14:04:21;;;;;;;32.53;15.03;;;;;;;0.03;89.45;98829.09;2161044;82;20897;-84
2021/12/20 14:07:22;;;;;;;42.67;16.93;;;;;;;0.06;88.90;98825.00;2177432;82;21004;-84
2021/12/20 14:10:22;;;;;;;39.17;16.40;;;;;;;0.10;88.62;98822.19;2177443;81;20968;-84
2021/12/20 14:13:23;;;;;;;22.03;10.07;;;;;;;0.14;87.95;98820.27;2176854;82;21015;-84
2021/12/20 14:16:24;;;;;;;21.53;8.43;;;;;;;0.18;87.24;98834.63;2177457;82;20995;-82
2021/12/20 14:19:24;;;;;;;19.00;9.73;;;;;;;0.19;87.03;98826.52;2176904;82;20924;-83
2021/12/20 14:22:25;;;;;;;26.97;13.23;;;;;;;0.19;86.55;98823.95;2177191;81;21352;-83
2021/12/20 14:25:25;;;;;;;17.30;7.90;;;;;;;0.18;86.47;98828.60;2178286;82;21042;-83
2021/12/20 14:28:26;;;;;;;18.23;8.50;;;;;;;0.11;85.69;98835.10;2178501;82;20988;-84
2021/12/20 14:31:41;;;;;;;19.07;9.33;;;;;;;0.09;86.13;98834.14;2179325;81;21015;-85
2021/12/20 14:34:41;;;;;;;17.80;8.83;;;;;;;0.07;86.23;98833.58;2130931;84;21059;-82